< < Back
Terminal Aerodrome Forecast


Current Version              Previous Versions:   1  2  3  4  5  6  7  8  9  

Terminal Aerodrome Forecast

612
FTUS42 KTAE 191100
TAFABY
TAF
KABY 191120Z 1912/2012 01010KT 6SM -DZ OVC007
     FM191600 01012KT P6SM BKN009
     FM200000 02008KT P6SM BKN009=



Latest METAR

074
SAUS70 KWBC 201100 RRK
MTRABY
METAR KABY 201053Z 03007G16KT 10SM OVC014 12/10 A3013 RMK AO2 SLP201
T01220100 PNO $


USA.gov is the U.S. government's official web portal to all federal, state and local government web resources and services.